WetterOnline ( https://www.wetteronline.de )

Wetter aktuell Marienberg

Aktuelles Wetter: Marienberg (640m)

6-stündlich | Neueste Meldungen
Ortszeit Temperatur Wetter
Mo, 04.07. 2:00 16.8° C wolkenlos
So, 03.07. 20:00 26.1° C leicht bewölkt
So, 03.07. 14:00 24.0° C leicht bewölkt
So, 03.07. 8:00 17.7° C wolkenlos
So, 03.07. 2:00 13.1° C wolkenlos
Sa, 02.07. 20:00 20.3° C wolkenlos
Sa, 02.07. 14:00 20.7° C wolkig
Sa, 02.07. 8:00 13.3° C wolkenlos
Ortszeit Temperatur Wetter
Mo, 04.07. 7:30 14.7° C wolkig
Mo, 04.07. 7:20 14.7° C wolkig
Mo, 04.07. 7:10 15.2° C bewölkt
Mo, 04.07. 7:00 15.1° C wolkig
Mo, 04.07. 6:50 15.1° C wolkig
Mo, 04.07. 6:40 14.8° C leicht bewölkt
Mo, 04.07. 6:30 14.3° C leicht bewölkt
Mo, 04.07. 6:00 14.5° C wolkig
Mo, 04.07. 5:30 14.0° C wolkig
Mo, 04.07. 5:00 14.3° C leicht bewölkt
Mo, 04.07. 4:30 15.4° C wolkenlos
Ortszeit Relative Feuchte Sichtweite
Mo, 04.07. 2:00 59% >70 km
So, 03.07. 20:00 34% 60 km
So, 03.07. 14:00 41% 65 km
So, 03.07. 8:00 61% 55 km
So, 03.07. 2:00 75% 55 km
Sa, 02.07. 20:00 46% >70 km
Sa, 02.07. 14:00 45% 35 km
Sa, 02.07. 8:00 81% 40 km
Ortszeit Relative Feuchte Sichtweite
Mo, 04.07. 7:30 81% 40 km
Mo, 04.07. 7:20 81% -
Mo, 04.07. 7:10 79% -
Mo, 04.07. 7:00 77% 50 km
Mo, 04.07. 6:50 77% -
Mo, 04.07. 6:40 79% -
Mo, 04.07. 6:30 80% 45 km
Mo, 04.07. 6:00 77% 50 km
Mo, 04.07. 5:30 78% 55 km
Mo, 04.07. 5:00 76% 55 km
Mo, 04.07. 4:30 71% 55 km
Ortszeit Niederschlagsmenge Niederschlagsart
Mo, 04.07. 2:00 0.0 l/m2 in 6 Std. -
So, 03.07. 20:00 0.0 l/m2 in 12 Std. -
So, 03.07. 14:00 0.0 l/m2 in 6 Std. -
So, 03.07. 8:00 0.0 l/m2 in 12 Std. -
So, 03.07. 2:00 0.0 l/m2 in 6 Std. -
Sa, 02.07. 20:00 0.0 l/m2 in 12 Std. -
Sa, 02.07. 14:00 0.0 l/m2 in 6 Std. -
Sa, 02.07. 8:00 0.2 l/m2 in 12 Std. -
Ortszeit Niederschlagsmenge Niederschlagsart
Mo, 04.07. 7:30 0.0 l/m2 in 1 Std. -
Mo, 04.07. 7:20 keine Meldung -
Mo, 04.07. 7:10 keine Meldung -
Mo, 04.07. 7:00 0.0 l/m2 in 1 Std. -
Mo, 04.07. 6:50 keine Meldung -
Mo, 04.07. 6:40 keine Meldung -
Mo, 04.07. 6:30 0.0 l/m2 in 1 Std. -
Mo, 04.07. 6:00 0.0 l/m2 in 1 Std. -
Mo, 04.07. 5:30 0.0 l/m2 in 1 Std. -
Mo, 04.07. 5:00 0.0 l/m2 in 1 Std. -
Mo, 04.07. 4:30 0.0 l/m2 in 1 Std. -
Ortszeit Stärke Spitze Richtung
km/h Bft. km/h Grad Sektor
Mo, 04.07. 2:00 9 2 17 260° W
So, 03.07. 20:00 7 2 25 290° W
So, 03.07. 14:00 9 2 26 280° W
So, 03.07. 8:00 7 2 29 180° S
So, 03.07. 2:00 7 2 22 140° SO
Sa, 02.07. 20:00 11 2 29 140° SO
Sa, 02.07. 14:00 6 1 19 40° NO
Sa, 02.07. 8:00 7 2 18 250° W
Ortszeit Stärke Spitze Richtung
km/h Bft. km/h Grad Sektor
Mo, 04.07. 7:30 9 2 19 310° NW
Mo, 04.07. 7:20 9 2 - 310° NW
Mo, 04.07. 7:10 9 2 - 300° NW
Mo, 04.07. 7:00 7 2 14 280° W
Mo, 04.07. 6:50 7 2 - 280° W
Mo, 04.07. 6:40 9 2 - 290° W
Mo, 04.07. 6:30 7 2 14 290° W
Mo, 04.07. 6:00 7 2 11 290° W
Mo, 04.07. 5:30 7 2 11 290° W
Mo, 04.07. 5:00 4 1 14 270° W
Mo, 04.07. 4:30 6 1 13 300° NW
Ortszeit Untergrenze Bedeckung Gattung
total tief tief mittel hoch
Mo, 04.07. 2:00 - 0/8 0/8 - - -
So, 03.07. 20:00 2100 m 3/8 3/8 - - -
So, 03.07. 14:00 1800 m 2/8 2/8 - - -
So, 03.07. 8:00 - 0/8 0/8 - - -
So, 03.07. 2:00 - 0/8 0/8 - - -
Sa, 02.07. 20:00 - 0/8 0/8 - - -
Sa, 02.07. 14:00 1500 m 6/8 6/8 - - -
Sa, 02.07. 8:00 - 0/8 0/8 - - -
Ortszeit Bedeckungsgrad in Achtel und Wolkenuntergrenze
Mo, 04.07. 7:30 6(2400m)
Mo, 04.07. 7:20 6(2400m)
Mo, 04.07. 7:10 7
Mo, 04.07. 7:00 5(2400m) 5(3000m)
Mo, 04.07. 6:50 5(2400m) 5(3000m)
Mo, 04.07. 6:40 2
Mo, 04.07. 6:30 2(7800m) 4(8400m)
Mo, 04.07. 6:00 5(7800m) 8(8400m) 8(9000m)
Mo, 04.07. 5:30 1(2400m) 8(8100m) 8(9000m)
Mo, 04.07. 5:00 3(8400m) 6(9000m)
Mo, 04.07. 4:30 keine Wolken
Ortszeit Luftdruck NN (hPa) Tendenz (hPa in 3 Std.)
Mo, 04.07. 2:00 1017 + 0,1
So, 03.07. 20:00 1014 - 0,6
So, 03.07. 14:00 1016 - 0,6
So, 03.07. 8:00 1019 - 0,1
So, 03.07. 2:00 1021 - 0,4
Sa, 02.07. 20:00 1021 - 1,2
Sa, 02.07. 14:00 1023 - 0,6
Sa, 02.07. 8:00 1025 + 1,1
Ortszeit Luftdruck NN (hPa) Tendenz (hPa in 3 Std.)
Mo, 04.07. 7:30 1019 + 0,9
Mo, 04.07. 7:20 1019 keine Meldung
Mo, 04.07. 7:10 1019 keine Meldung
Mo, 04.07. 7:00 1019 + 0,8
Mo, 04.07. 6:50 1019 keine Meldung
Mo, 04.07. 6:40 1019 keine Meldung
Mo, 04.07. 6:30 1019 + 0,9
Mo, 04.07. 6:00 1019 + 0,8
Mo, 04.07. 5:30 1019 + 0,9
Mo, 04.07. 5:00 1018 + 1,0
Mo, 04.07. 4:30 1018 + 1,1
Ortszeit Schneehöhe (cm)
Mo, 04.07. 2:00 0
So, 03.07. 20:00 0
So, 03.07. 14:00 0
So, 03.07. 8:00 0
So, 03.07. 2:00 0
Sa, 02.07. 20:00 0
Sa, 02.07. 14:00 0
Sa, 02.07. 8:00 0
Ortszeit Schneehöhe (cm)
Mo, 04.07. 7:30 0
Mo, 04.07. 7:20 0
Mo, 04.07. 7:10 0
Mo, 04.07. 7:00 0
Mo, 04.07. 6:50 0
Mo, 04.07. 6:40 0
Mo, 04.07. 6:30 0
Mo, 04.07. 6:00 0
Mo, 04.07. 5:30 0
Mo, 04.07. 5:00 0
Mo, 04.07. 4:30 0
Link zu dieser Seite / Seite empfehlen

Das Wetter in ...